createdAt,value
2022-10-01T00:00:44.351Z,4.6
2022-10-01T00:05:52.459Z,5.4
2022-10-01T00:11:00.565Z,5.4
2022-10-01T00:16:08.647Z,5.1
2022-10-01T00:21:16.731Z,5.2
2022-10-01T00:26:24.764Z,5.3
2022-10-01T00:31:32.806Z,5.4
2022-10-01T00:36:40.862Z,5.9
2022-10-01T00:41:48.872Z,6.2
2022-10-01T00:46:56.939Z,6.2
2022-10-01T00:52:05.610Z,6.1
2022-10-01T00:57:14.247Z,6.4
2022-10-01T01:02:22.855Z,6.6
2022-10-01T01:07:31.446Z,6.8
2022-10-01T01:12:40.073Z,7.5
2022-10-01T01:17:48.628Z,7.4
2022-10-01T01:22:57.185Z,7.2
2022-10-01T01:28:05.766Z,7.1
2022-10-01T01:33:14.367Z,7.5
2022-10-01T01:38:22.934Z,7.7
2022-10-01T01:43:31.502Z,8.1
2022-10-01T01:48:40.068Z,8
2022-10-01T01:53:48.622Z,8.1
2022-10-01T01:58:58.175Z,7.9
2022-10-01T02:04:05.982Z,8.2
2022-10-01T02:09:13.525Z,8.1
2022-10-01T02:14:21.109Z,8.4
2022-10-01T02:19:28.648Z,8.2
2022-10-01T02:24:36.178Z,8.2
2022-10-01T02:29:43.739Z,8.4
2022-10-01T02:34:51.296Z,8.3
2022-10-01T02:39:58.816Z,8.3
2022-10-01T02:45:06.349Z,8.3
2022-10-01T02:50:13.859Z,8.4
2022-10-01T02:55:21.347Z,8.3
2022-10-01T03:00:28.828Z,8.3
2022-10-01T03:05:36.334Z,8.3
2022-10-01T03:10:43.845Z,8.4
2022-10-01T03:15:51.349Z,8.4
2022-10-01T03:20:58.887Z,8.2
2022-10-01T03:26:06.371Z,8.5
2022-10-01T03:31:13.859Z,8.4
2022-10-01T03:36:21.328Z,8.5
2022-10-01T03:41:28.820Z,8.6
2022-10-01T03:46:36.324Z,8.9
2022-10-01T03:51:43.829Z,8.8
2022-10-01T03:56:51.341Z,8.9
2022-10-01T04:01:58.835Z,8.9
2022-10-01T04:07:06.311Z,8.9
2022-10-01T04:12:13.939Z,8.9
2022-10-01T04:17:21.553Z,9.2
2022-10-01T04:22:29.188Z,9.2
2022-10-01T04:27:36.805Z,9.1
2022-10-01T04:32:44.405Z,9
2022-10-01T04:37:51.965Z,9.4
2022-10-01T04:42:59.542Z,9.3
2022-10-01T04:53:14.629Z,9.1
2022-10-01T04:58:22.150Z,9.2
2022-10-01T05:03:29.676Z,9
2022-10-01T05:08:37.221Z,9
2022-10-01T05:13:44.754Z,9.4
2022-10-01T05:18:52.580Z,9.2
2022-10-01T05:24:00.391Z,9.4
2022-10-01T05:29:08.111Z,9.4
2022-10-01T05:34:15.876Z,9.5
2022-10-01T05:39:23.622Z,9.6
2022-10-01T05:44:31.347Z,9.5
2022-10-01T05:49:39.075Z,9.6
2022-10-01T05:54:46.802Z,9.9
2022-10-01T05:59:54.565Z,10.1
2022-10-01T06:05:02.234Z,10.2
2022-10-01T06:10:09.940Z,10.2
2022-10-01T06:15:17.631Z,10.3
2022-10-01T06:20:25.342Z,10.3
2022-10-01T06:25:33.666Z,10.4
2022-10-01T06:30:40.601Z,10.5
2022-10-01T06:35:47.962Z,10.5
2022-10-01T06:40:55.237Z,10.6
2022-10-01T06:46:02.542Z,10.7
2022-10-01T06:51:09.822Z,10.8
2022-10-01T06:56:17.100Z,10.9
2022-10-01T07:01:24.466Z,11
2022-10-01T07:06:31.716Z,11.2
2022-10-01T07:11:39.001Z,11.2
2022-10-01T07:16:46.279Z,11.2
2022-10-01T07:21:53.524Z,11.2
2022-10-01T07:27:00.780Z,11.3
2022-10-01T07:32:08.065Z,11.4
2022-10-01T07:37:15.341Z,11.5
2022-10-01T07:42:22.563Z,11.7
2022-10-01T07:47:29.828Z,11.7
2022-10-01T07:52:37.043Z,11.3
2022-10-01T07:57:44.300Z,11
2022-10-01T08:02:51.574Z,10.8
2022-10-01T08:07:58.873Z,10.7
2022-10-01T08:13:06.150Z,10.6
2022-10-01T08:18:13.419Z,10.6
2022-10-01T08:23:20.709Z,10.5
2022-10-01T08:28:28.003Z,10.4
2022-10-01T08:33:35.303Z,10.4
2022-10-01T08:38:42.752Z,10.5
2022-10-01T08:43:50.231Z,10.5
2022-10-01T08:48:57.629Z,10.4
2022-10-01T08:54:05.085Z,10.4
2022-10-01T08:59:12.524Z,10.5
2022-10-01T09:04:19.992Z,10.6
2022-10-01T09:09:27.428Z,10.6
2022-10-01T09:14:34.866Z,10.6
2022-10-01T09:19:42.312Z,10.5
2022-10-01T09:24:49.739Z,10.4
2022-10-01T09:29:57.195Z,10.3
2022-10-01T09:35:04.628Z,10.2
2022-10-01T09:40:12.112Z,10.2
2022-10-01T09:45:19.833Z,10.2
2022-10-01T09:50:27.547Z,10.2
2022-10-01T09:55:35.241Z,10.1
2022-10-01T10:00:42.997Z,10.1
2022-10-01T10:05:50.757Z,10.1
2022-10-01T10:10:58.528Z,10.1
2022-10-01T10:16:06.280Z,10.1
2022-10-01T10:21:13.969Z,10.2
2022-10-01T10:26:21.720Z,10.2
2022-10-01T10:31:29.281Z,10.3
2022-10-01T10:36:37.092Z,10.4
2022-10-01T10:41:44.705Z,10.6
2022-10-01T10:46:52.384Z,10.6
2022-10-01T10:52:00.671Z,10.7
2022-10-01T10:57:07.529Z,10.9
2022-10-01T11:02:14.822Z,10.8
2022-10-01T11:07:22.071Z,10.7
2022-10-01T11:12:29.421Z,10.6
2022-10-01T11:22:44.040Z,10.8
2022-10-01T11:27:51.286Z,10.9
2022-10-01T11:32:58.484Z,10.7
2022-10-01T11:38:05.811Z,10.8
2022-10-01T11:43:13.023Z,11
2022-10-01T11:48:20.265Z,11.2
2022-10-01T11:53:27.513Z,11.3
2022-10-01T11:58:34.816Z,11.7
2022-10-01T12:03:42.039Z,11.6
2022-10-01T12:08:49.270Z,11.8
2022-10-01T12:13:56.566Z,11.8
2022-10-01T12:19:03.736Z,11.9
2022-10-01T12:24:10.996Z,11.7
2022-10-01T12:29:18.198Z,11.7
2022-10-01T12:34:25.335Z,11.6
2022-10-01T12:39:32.606Z,11.7
2022-10-01T12:44:39.721Z,11.7
2022-10-01T12:49:46.951Z,12
2022-10-01T12:54:54.152Z,12.8
2022-10-01T13:00:01.351Z,12.8
2022-10-01T13:05:08.642Z,12.8
2022-10-01T13:10:15.967Z,12.7
2022-10-01T13:15:23.208Z,12.9
2022-10-01T13:20:30.539Z,13.4
2022-10-01T13:25:37.768Z,13.4
2022-10-01T13:30:44.987Z,13.5
2022-10-01T13:35:52.229Z,14.2
2022-10-01T13:40:59.472Z,13.5
2022-10-01T13:46:06.680Z,13.1
2022-10-01T13:51:13.911Z,13
2022-10-01T13:56:21.182Z,13.2
2022-10-01T14:01:28.554Z,13.3
2022-10-01T14:06:35.711Z,13.3
2022-10-01T14:11:43.248Z,13.1
2022-10-01T14:16:50.778Z,13.1
2022-10-01T14:21:58.300Z,13.3
2022-10-01T14:27:05.763Z,13.6
2022-10-01T14:32:13.252Z,13.6
2022-10-01T14:37:20.793Z,13.7
2022-10-01T14:42:28.242Z,14.6
2022-10-01T14:47:35.720Z,13.9
2022-10-01T14:52:43.172Z,13.7
2022-10-01T14:57:50.712Z,13.6
2022-10-01T15:02:58.171Z,13.5
2022-10-01T15:08:05.649Z,13.5
2022-10-01T15:13:13.124Z,13.6
2022-10-01T15:18:21.248Z,13.7
2022-10-01T15:23:27.926Z,13.8
2022-10-01T15:28:35.015Z,13.8
2022-10-01T15:33:42.121Z,15.3
2022-10-01T15:38:49.243Z,14.7
2022-10-01T15:43:56.281Z,13.9
2022-10-01T15:49:03.392Z,13.9
2022-10-01T15:54:10.440Z,13.6
2022-10-01T15:59:17.517Z,13.3
2022-10-01T16:04:24.614Z,13.1
2022-10-01T16:09:31.797Z,13
2022-10-01T16:14:38.936Z,12.9
2022-10-01T16:19:46.075Z,12.8
2022-10-01T16:24:53.238Z,12.9
2022-10-01T16:35:07.613Z,13.2
2022-10-01T16:40:14.798Z,13.2
2022-10-01T16:45:22.027Z,13.2
2022-10-01T16:50:29.166Z,13.1
2022-10-01T16:55:36.402Z,13.2
2022-10-01T17:00:43.604Z,12.8
2022-10-01T17:05:50.864Z,12.6
2022-10-01T17:16:05.254Z,12.4
2022-10-01T17:21:12.558Z,12.4
2022-10-01T17:26:19.751Z,12.2
2022-10-01T17:31:27.184Z,12.1
2022-10-01T17:36:34.515Z,11.9
2022-10-01T17:41:41.927Z,11.7
2022-10-01T17:46:49.354Z,11.5
2022-10-01T17:51:56.933Z,11.2
2022-10-01T17:57:04.304Z,11.1
2022-10-01T18:02:11.778Z,11.1
2022-10-01T18:07:19.250Z,10.9
2022-10-01T18:12:26.752Z,10.8
2022-10-01T18:17:34.310Z,10.8
2022-10-01T18:22:41.800Z,10.7
2022-10-01T18:27:49.362Z,10.6
2022-10-01T18:32:56.859Z,10.6
2022-10-01T18:38:04.475Z,10.6
2022-10-01T18:43:12.225Z,10.5
2022-10-01T18:48:19.956Z,10.4
2022-10-01T18:53:27.723Z,10.2
2022-10-01T18:58:35.517Z,10.2
2022-10-01T19:03:43.258Z,10.1
2022-10-01T19:08:51.039Z,10.2
2022-10-01T19:13:58.776Z,10.1
2022-10-01T19:19:06.498Z,10.2
2022-10-01T19:24:14.330Z,9.9
2022-10-01T19:29:22.111Z,9.9
2022-10-01T19:34:29.883Z,9.8
2022-10-01T19:39:37.714Z,9.8
2022-10-01T19:44:46.102Z,9.6
2022-10-01T19:49:53.095Z,9.8
2022-10-01T19:55:00.521Z,9.8
2022-10-01T20:00:07.977Z,9.9
2022-10-01T20:05:15.411Z,9.8
2022-10-01T20:10:22.874Z,9.9
2022-10-01T20:15:30.326Z,9.9
2022-10-01T20:20:37.804Z,9.9
2022-10-01T20:25:45.233Z,9.9
2022-10-01T20:30:52.674Z,10
2022-10-01T20:36:00.080Z,10
2022-10-01T20:41:07.527Z,10
2022-10-01T20:46:14.997Z,9.9
2022-10-01T20:51:22.441Z,9.9
2022-10-01T20:56:29.895Z,10
2022-10-01T21:01:37.355Z,9.9
2022-10-01T21:06:44.809Z,9.7
2022-10-01T21:11:52.258Z,9.7
2022-10-01T21:16:59.726Z,9.8
2022-10-01T21:22:07.199Z,9.7
2022-10-01T21:27:14.687Z,9.8
2022-10-01T21:32:22.137Z,9.8
2022-10-01T21:37:29.632Z,9.7
2022-10-01T21:42:37.056Z,9.7
2022-10-01T21:47:44.496Z,9.7
2022-10-01T21:52:51.889Z,9.8
2022-10-01T21:57:59.505Z,9.8
2022-10-01T22:03:07.045Z,9.8
2022-10-01T22:08:14.602Z,9.8
2022-10-01T22:13:22.195Z,9.7
2022-10-01T22:18:29.766Z,9.8
2022-10-01T22:23:37.420Z,9.8
2022-10-01T22:28:44.852Z,9.9
2022-10-01T22:33:52.405Z,9.9
2022-10-01T22:38:59.935Z,9.7
2022-10-01T22:44:07.530Z,10
2022-10-01T22:49:15.082Z,10
2022-10-01T22:54:22.640Z,10
2022-10-01T22:59:30.159Z,10.2
2022-10-01T23:04:37.955Z,9.9
2022-10-01T23:09:45.732Z,10.1
2022-10-01T23:14:53.538Z,10.1
2022-10-01T23:20:01.332Z,10.2
2022-10-01T23:25:09.125Z,10.2
2022-10-01T23:30:16.918Z,10.2
2022-10-01T23:35:24.697Z,10.2
2022-10-01T23:40:32.444Z,10.2
2022-10-01T23:45:40.258Z,10.2
2022-10-01T23:50:48.008Z,10.3
2022-10-01T23:55:55.745Z,10.3
